createdAt,value
2022-10-29T00:00:30.619Z,55.98
2022-10-29T00:03:03.634Z,55.95
2022-10-29T00:05:36.663Z,55.89
2022-10-29T00:08:09.565Z,56.01
2022-10-29T00:10:42.426Z,56.00
2022-10-29T00:13:15.488Z,55.99
2022-10-29T00:15:48.651Z,56.01
2022-10-29T00:18:21.697Z,55.99
2022-10-29T00:20:54.566Z,56.10
2022-10-29T00:23:29.587Z,56.04
2022-10-29T00:26:02.621Z,55.99
2022-10-29T00:28:49.623Z,56.00
2022-10-29T00:31:22.610Z,56.06
2022-10-29T00:33:55.479Z,55.97
2022-10-29T00:36:28.620Z,55.99
2022-10-29T00:39:01.586Z,56.01
2022-10-29T00:41:34.610Z,55.99
2022-10-29T00:44:07.634Z,56.00
2022-10-29T00:46:40.626Z,55.93
2022-10-29T00:49:13.667Z,56.01
2022-10-29T00:51:46.645Z,55.99
2022-10-29T00:54:19.680Z,56.00
2022-10-29T00:56:52.647Z,56.06
2022-10-29T00:59:25.701Z,56.01
2022-10-29T01:01:58.836Z,56.04
2022-10-29T01:04:31.681Z,56.11
2022-10-29T01:07:04.608Z,56.12
2022-10-29T01:09:37.733Z,56.26
2022-10-29T01:12:10.651Z,56.32
2022-10-29T01:14:43.714Z,56.32
2022-10-29T01:17:19.547Z,56.30
2022-10-29T01:19:52.694Z,56.31
2022-10-29T01:22:25.760Z,56.31
2022-10-29T01:24:58.699Z,56.30
2022-10-29T01:27:31.786Z,56.33
2022-10-29T01:30:04.732Z,56.27
2022-10-29T01:32:37.638Z,56.32
2022-10-29T01:35:10.704Z,56.33
2022-10-29T01:37:43.752Z,56.21
2022-10-29T01:40:16.695Z,56.31
2022-10-29T01:42:49.791Z,56.31
2022-10-29T01:45:22.769Z,56.31
2022-10-29T01:47:56.060Z,56.23
2022-10-29T01:50:28.688Z,56.28
2022-10-29T01:53:01.694Z,56.26
2022-10-29T01:55:34.815Z,56.22
2022-10-29T01:58:07.843Z,56.20
2022-10-29T02:00:40.504Z,56.15
2022-10-29T02:03:13.694Z,56.17
2022-10-29T02:05:46.783Z,56.21
2022-10-29T02:08:33.682Z,56.15
2022-10-29T02:11:06.836Z,56.15
2022-10-29T02:13:39.797Z,56.09
2022-10-29T02:16:12.835Z,56.08
2022-10-29T02:18:45.727Z,56.14
2022-10-29T02:21:18.875Z,56.12
2022-10-29T02:23:51.802Z,56.08
2022-10-29T02:26:38.779Z,56.09
2022-10-29T02:29:11.786Z,56.11
2022-10-29T02:31:44.900Z,56.12
2022-10-29T02:34:17.814Z,56.06
2022-10-29T02:36:50.736Z,56.06
2022-10-29T02:39:23.773Z,56.07
2022-10-29T02:41:56.878Z,56.02
2022-10-29T02:44:29.796Z,56.00
2022-10-29T02:47:02.880Z,56.07
2022-10-29T02:49:35.769Z,56.05
2022-10-29T02:52:08.899Z,56.08
2022-10-29T02:54:41.834Z,56.07
2022-10-29T02:57:14.764Z,56.05
2022-10-29T02:59:47.908Z,56.08
2022-10-29T03:02:20.933Z,56.11
2022-10-29T03:04:53.845Z,56.19
2022-10-29T03:07:30.646Z,56.17
2022-10-29T03:10:03.877Z,56.24
2022-10-29T03:12:36.937Z,56.15
2022-10-29T03:15:09.814Z,56.19
2022-10-29T03:17:42.928Z,56.21
2022-10-29T03:20:15.847Z,56.20
2022-10-29T03:22:48.822Z,56.26
2022-10-29T03:25:21.922Z,56.18
2022-10-29T03:27:55.274Z,56.23
2022-10-29T03:30:27.926Z,56.25
2022-10-29T03:33:00.892Z,56.24
2022-10-29T03:35:33.974Z,56.26
2022-10-29T03:38:06.874Z,56.33
2022-10-29T03:40:39.574Z,56.26
2022-10-29T03:43:12.907Z,56.25
2022-10-29T03:45:45.984Z,56.26
2022-10-29T03:48:18.969Z,56.25
2022-10-29T03:50:51.899Z,56.24
2022-10-29T03:53:24.914Z,56.18
2022-10-29T03:55:57.927Z,56.20
2022-10-29T03:58:30.940Z,56.22
2022-10-29T04:01:03.987Z,56.19
2022-10-29T04:03:36.969Z,56.22
2022-10-29T04:06:09.871Z,56.21
2022-10-29T04:08:42.925Z,56.17
2022-10-29T04:11:15.932Z,56.18
2022-10-29T04:13:48.888Z,56.22
2022-10-29T04:16:22.012Z,56.17
2022-10-29T04:18:54.984Z,56.14
2022-10-29T04:28:17.441Z,56.19
2022-10-29T04:29:07.042Z,56.20
2022-10-29T04:31:39.950Z,56.19
2022-10-29T04:34:13.007Z,56.15
2022-10-29T04:36:45.940Z,56.16
2022-10-29T04:39:21.012Z,56.13
2022-10-29T04:41:51.979Z,56.15
2022-10-29T04:44:24.686Z,56.17
2022-10-29T04:46:58.005Z,56.13
2022-10-29T04:49:31.229Z,56.19
2022-10-29T04:52:03.956Z,56.15
2022-10-29T04:54:37.042Z,56.15
2022-10-29T04:57:09.956Z,56.17
2022-10-29T04:59:43.044Z,56.17
2022-10-29T05:02:16.054Z,56.09
2022-10-29T05:04:49.059Z,56.15
2022-10-29T05:07:22.070Z,56.16
2022-10-29T05:10:00.902Z,56.15
2022-10-29T05:12:34.015Z,56.17
2022-10-29T05:15:07.088Z,56.13
2022-10-29T05:17:40.017Z,56.14
2022-10-29T05:20:12.837Z,56.16
2022-10-29T05:22:46.018Z,56.15
2022-10-29T05:25:19.105Z,56.16
2022-10-29T05:27:52.005Z,56.08
2022-10-29T05:30:25.014Z,56.19
2022-10-29T05:32:58.357Z,56.22
2022-10-29T05:35:30.984Z,56.25
2022-10-29T05:38:04.074Z,56.20
2022-10-29T05:40:36.871Z,56.30
2022-10-29T05:43:10.004Z,55.91
2022-10-29T05:45:42.879Z,54.72
2022-10-29T05:48:22.177Z,54.46
2022-10-29T05:50:54.915Z,54.24
2022-10-29T05:53:28.018Z,54.30
2022-10-29T05:56:03.939Z,54.30
2022-10-29T05:58:36.739Z,54.25
2022-10-29T06:01:10.334Z,54.56
2022-10-29T06:03:43.141Z,54.80
2022-10-29T06:06:16.081Z,54.91
2022-10-29T06:08:49.183Z,54.96
2022-10-29T06:11:22.152Z,55.13
2022-10-29T06:13:54.998Z,55.21
2022-10-29T06:16:28.143Z,55.31
2022-10-29T06:19:01.176Z,55.21
2022-10-29T06:21:48.090Z,55.25
2022-10-29T06:24:21.059Z,55.32
2022-10-29T06:26:53.956Z,55.38
2022-10-29T06:29:27.121Z,55.46
2022-10-29T06:32:00.099Z,55.45
2022-10-29T06:34:33.268Z,55.48
2022-10-29T06:37:06.191Z,55.44
2022-10-29T06:39:39.104Z,55.49
2022-10-29T06:42:12.091Z,55.48
2022-10-29T06:44:44.813Z,55.54
2022-10-29T06:47:17.827Z,55.50
2022-10-29T06:49:51.022Z,55.48
2022-10-29T06:52:23.845Z,55.52
2022-10-29T06:54:56.874Z,55.48
2022-10-29T06:57:30.087Z,55.47
2022-10-29T07:00:07.368Z,55.45
2022-10-29T07:02:36.241Z,55.45
2022-10-29T07:05:08.894Z,55.43
2022-10-29T07:07:41.892Z,55.45
2022-10-29T07:10:14.877Z,55.43
2022-10-29T07:12:48.161Z,55.42
2022-10-29T07:15:24.184Z,55.39
2022-10-29T07:17:54.653Z,55.43
2022-10-29T07:20:27.072Z,55.46
2022-10-29T07:22:59.998Z,55.40
2022-10-29T07:25:33.188Z,55.41
2022-10-29T07:28:06.257Z,55.44
2022-10-29T07:30:38.938Z,55.36
2022-10-29T07:33:12.239Z,55.39
2022-10-29T07:35:45.311Z,52.63
2022-10-29T07:38:17.991Z,51.78
2022-10-29T07:40:50.948Z,51.94
2022-10-29T07:43:23.903Z,52.91
2022-10-29T07:45:57.227Z,53.49
2022-10-29T07:48:30.073Z,53.93
2022-10-29T07:51:02.944Z,54.04
2022-10-29T07:53:36.270Z,54.22
2022-10-29T07:56:08.914Z,54.33
2022-10-29T07:58:42.322Z,54.34
2022-10-29T08:01:15.345Z,54.48
2022-10-29T08:03:48.069Z,54.55
2022-10-29T08:06:20.946Z,54.66
2022-10-29T08:08:54.070Z,54.36
2022-10-29T08:11:27.045Z,54.18
2022-10-29T08:14:00.157Z,54.11
2022-10-29T08:16:33.812Z,54.11
2022-10-29T08:19:07.192Z,54.06
2022-10-29T08:21:40.001Z,53.94
2022-10-29T08:24:12.968Z,54.02
2022-10-29T08:26:46.065Z,53.84
2022-10-29T08:29:19.341Z,53.82
2022-10-29T08:31:52.229Z,53.89
2022-10-29T08:34:25.381Z,53.70
2022-10-29T08:36:58.037Z,53.81
2022-10-29T08:39:31.046Z,53.81
2022-10-29T08:42:04.143Z,53.78
2022-10-29T08:44:37.322Z,53.73
2022-10-29T08:47:09.998Z,53.72
2022-10-29T08:49:43.129Z,53.84
2022-10-29T08:52:16.148Z,53.72
2022-10-29T08:54:49.089Z,53.69
2022-10-29T08:57:22.315Z,53.81
2022-10-29T08:59:55.196Z,53.83
2022-10-29T09:02:28.001Z,53.74
2022-10-29T09:05:01.018Z,53.86
2022-10-29T09:07:34.070Z,53.84
2022-10-29T09:10:07.099Z,53.75
2022-10-29T09:12:40.134Z,53.78
2022-10-29T09:15:13.315Z,53.77
2022-10-29T09:17:46.195Z,53.86
2022-10-29T09:20:19.151Z,53.80
2022-10-29T09:22:52.082Z,53.77
2022-10-29T09:25:25.217Z,53.78
2022-10-29T09:27:58.687Z,53.82
2022-10-29T09:30:31.050Z,53.83
2022-10-29T09:33:04.338Z,53.81
2022-10-29T09:35:37.050Z,53.81
2022-10-29T09:38:10.068Z,53.77
2022-10-29T09:40:43.267Z,53.74
2022-10-29T09:43:16.133Z,53.69
2022-10-29T09:45:49.079Z,53.68
2022-10-29T09:48:22.191Z,53.66
2022-10-29T09:50:55.123Z,53.70
2022-10-29T09:53:28.099Z,53.66
2022-10-29T09:56:01.091Z,53.52
2022-10-29T09:58:34.200Z,53.67
2022-10-29T10:01:07.482Z,53.56
2022-10-29T10:03:40.272Z,53.54
2022-10-29T10:06:13.106Z,53.51
2022-10-29T10:08:46.517Z,53.53
2022-10-29T10:11:19.139Z,53.39
2022-10-29T10:13:52.514Z,53.28
2022-10-29T10:16:25.548Z,53.27
2022-10-29T10:18:58.439Z,53.21
2022-10-29T10:21:31.378Z,53.38
2022-10-29T10:24:04.420Z,53.24
2022-10-29T10:26:37.347Z,53.38
2022-10-29T10:29:10.441Z,53.39
2022-10-29T10:31:43.439Z,53.24
2022-10-29T10:34:16.601Z,52.89
2022-10-29T10:36:50.140Z,52.79
2022-10-29T10:39:23.472Z,52.84
2022-10-29T10:41:56.151Z,53.05
2022-10-29T10:44:29.325Z,53.14
2022-10-29T10:47:02.322Z,53.24
2022-10-29T10:49:35.158Z,53.27
2022-10-29T10:52:08.481Z,53.36
2022-10-29T10:54:41.606Z,53.41
2022-10-29T10:57:14.165Z,53.44
2022-10-29T10:59:47.253Z,53.49
2022-10-29T11:02:20.613Z,53.52
2022-10-29T11:04:53.182Z,53.56
2022-10-29T11:07:26.250Z,53.60
2022-10-29T11:09:59.301Z,53.60
2022-10-29T11:12:32.362Z,53.59
2022-10-29T11:15:05.380Z,53.65
2022-10-29T11:17:38.511Z,53.66
2022-10-29T11:20:11.498Z,53.69
2022-10-29T11:22:44.512Z,53.64
2022-10-29T11:25:17.361Z,52.94
2022-10-29T11:27:50.480Z,52.64
2022-10-29T11:30:23.224Z,52.49
2022-10-29T11:32:56.853Z,52.45
2022-10-29T11:35:29.215Z,52.38
2022-10-29T11:38:02.266Z,52.39
2022-10-29T11:40:35.248Z,52.73
2022-10-29T11:43:09.233Z,52.88
2022-10-29T11:45:41.481Z,53.01
2022-10-29T11:48:19.043Z,53.08
2022-10-29T11:50:47.503Z,53.16
2022-10-29T11:53:20.413Z,53.20
2022-10-29T11:55:53.392Z,53.25
2022-10-29T11:58:26.264Z,53.12
2022-10-29T12:00:59.420Z,53.02
2022-10-29T12:03:32.504Z,52.51
2022-10-29T12:06:05.281Z,52.33
2022-10-29T12:08:38.673Z,52.50
2022-10-29T12:11:11.422Z,52.20
2022-10-29T12:13:44.274Z,52.10
2022-10-29T12:16:23.419Z,52.19
2022-10-29T12:18:56.374Z,52.14
2022-10-29T12:21:29.682Z,52.44
2022-10-29T12:24:02.611Z,52.50
2022-10-29T12:26:35.458Z,52.44
2022-10-29T12:29:08.558Z,52.48
2022-10-29T12:31:41.299Z,52.54
2022-10-29T12:34:14.304Z,52.69
2022-10-29T12:36:49.784Z,52.70
2022-10-29T12:39:20.472Z,52.68
2022-10-29T12:41:53.421Z,52.73
2022-10-29T12:44:26.471Z,52.61
2022-10-29T12:46:59.459Z,52.69
2022-10-29T12:49:32.673Z,52.61
2022-10-29T12:52:05.522Z,52.58
2022-10-29T12:54:38.466Z,52.58
2022-10-29T12:57:11.414Z,52.65
2022-10-29T12:59:44.364Z,52.69
2022-10-29T13:02:17.486Z,52.62
2022-10-29T13:04:50.353Z,52.58
2022-10-29T13:07:24.006Z,52.72
2022-10-29T13:09:56.576Z,52.57
2022-10-29T13:12:29.403Z,52.63
2022-10-29T13:15:02.541Z,52.58
2022-10-29T13:17:35.651Z,52.73
2022-10-29T13:20:08.769Z,52.85
2022-10-29T13:22:41.390Z,52.92
2022-10-29T13:25:14.642Z,52.96
2022-10-29T13:27:47.793Z,52.97
2022-10-29T13:30:20.396Z,53.01
2022-10-29T13:32:53.962Z,53.02
2022-10-29T13:35:26.490Z,53.07
2022-10-29T13:37:59.671Z,53.07
2022-10-29T13:40:32.733Z,53.05
2022-10-29T13:43:05.708Z,53.01
2022-10-29T13:45:38.728Z,53.00
2022-10-29T13:48:11.712Z,52.99
2022-10-29T13:50:44.776Z,52.98
2022-10-29T13:53:17.692Z,53.00
2022-10-29T13:55:50.671Z,52.97
2022-10-29T13:58:23.760Z,52.96
2022-10-29T14:00:56.798Z,52.97
2022-10-29T14:03:29.772Z,52.95
2022-10-29T14:06:02.821Z,52.96
2022-10-29T14:08:35.837Z,52.96
2022-10-29T14:11:08.771Z,52.95
2022-10-29T14:13:41.658Z,52.95
2022-10-29T14:16:14.461Z,52.94
2022-10-29T14:18:47.583Z,52.93
2022-10-29T14:21:20.851Z,52.92
2022-10-29T14:23:53.574Z,52.96
2022-10-29T14:26:26.750Z,52.94
2022-10-29T14:28:59.807Z,52.95
2022-10-29T14:31:32.842Z,52.96
2022-10-29T14:34:05.845Z,52.95
2022-10-29T14:36:38.797Z,52.96
2022-10-29T14:39:11.793Z,52.97
2022-10-29T14:41:44.823Z,53.00
2022-10-29T14:44:17.791Z,52.98
2022-10-29T14:46:50.579Z,52.97
2022-10-29T14:49:23.875Z,52.97
2022-10-29T14:51:56.518Z,52.97
2022-10-29T14:54:29.561Z,53.00
2022-10-29T14:57:02.677Z,53.00
2022-10-29T14:59:35.909Z,53.00
2022-10-29T15:02:32.096Z,53.00
2022-10-29T15:04:55.836Z,53.02
2022-10-29T15:07:28.516Z,53.03
2022-10-29T15:10:01.568Z,53.10
2022-10-29T15:12:34.821Z,53.04
2022-10-29T15:15:07.939Z,53.12
2022-10-29T15:17:40.641Z,53.19
2022-10-29T15:20:13.533Z,53.27
2022-10-29T15:22:46.747Z,53.32
2022-10-29T15:25:19.723Z,53.38
2022-10-29T15:27:52.680Z,53.40
2022-10-29T15:32:59.171Z,53.46
2022-10-29T15:35:31.617Z,53.48
2022-10-29T15:38:04.710Z,53.53
2022-10-29T15:40:37.746Z,53.57
2022-10-29T15:43:10.556Z,53.53
2022-10-29T15:45:43.636Z,53.55
2022-10-29T15:48:16.577Z,53.60
2022-10-29T15:50:49.978Z,53.60
2022-10-29T15:53:22.802Z,53.62
2022-10-29T15:55:55.867Z,53.73
2022-10-29T15:58:28.794Z,53.69
2022-10-29T16:01:01.948Z,53.70
2022-10-29T16:03:38.342Z,53.74
2022-10-29T16:06:07.602Z,53.68
2022-10-29T16:08:41.002Z,53.72
2022-10-29T16:11:13.888Z,53.77
2022-10-29T16:13:51.852Z,53.79
2022-10-29T16:16:20.068Z,53.79
2022-10-29T16:18:52.696Z,53.74
2022-10-29T16:21:26.031Z,53.69
2022-10-29T16:23:58.940Z,53.67
2022-10-29T16:26:31.958Z,53.67
2022-10-29T16:29:04.953Z,53.66
2022-10-29T16:31:38.063Z,53.67
2022-10-29T16:34:10.883Z,53.66
2022-10-29T16:36:44.167Z,53.67
2022-10-29T16:39:17.799Z,53.68
2022-10-29T16:41:50.807Z,53.66
2022-10-29T16:44:23.849Z,53.78
2022-10-29T16:47:10.629Z,53.93
2022-10-29T16:49:44.039Z,54.05
2022-10-29T16:52:21.006Z,54.10
2022-10-29T16:54:49.813Z,54.07
2022-10-29T16:57:23.077Z,54.02
2022-10-29T16:59:56.095Z,54.05
2022-10-29T17:02:28.703Z,54.02
2022-10-29T17:05:02.054Z,53.98
2022-10-29T17:07:34.795Z,54.03
2022-10-29T17:10:07.863Z,54.02
2022-10-29T17:12:40.705Z,54.06
2022-10-29T17:15:13.693Z,54.04
2022-10-29T17:17:47.147Z,54.11
2022-10-29T17:20:19.892Z,54.11
2022-10-29T17:22:52.735Z,54.08
2022-10-29T17:25:25.815Z,54.14
2022-10-29T17:27:59.509Z,54.13
2022-10-29T17:30:32.075Z,54.14
2022-10-29T17:33:04.772Z,54.18
2022-10-29T17:35:37.966Z,54.18
2022-10-29T17:38:10.750Z,54.16
2022-10-29T17:40:43.808Z,54.17
2022-10-29T17:43:16.748Z,54.20
2022-10-29T17:45:50.170Z,54.19
2022-10-29T17:48:25.111Z,54.24
2022-10-29T17:50:56.107Z,54.19
2022-10-29T17:53:28.757Z,54.19
2022-10-29T17:56:02.073Z,54.26
2022-10-29T17:58:35.106Z,54.23
2022-10-29T18:01:07.895Z,54.25
2022-10-29T18:03:40.846Z,54.25
2022-10-29T18:06:14.003Z,54.21
2022-10-29T18:08:46.800Z,54.24
2022-10-29T18:11:19.930Z,54.17
2022-10-29T18:13:52.891Z,54.21
2022-10-29T18:16:25.903Z,54.14
2022-10-29T18:19:02.840Z,54.11
2022-10-29T18:21:31.832Z,54.13
2022-10-29T18:24:04.918Z,54.08
2022-10-29T18:26:37.856Z,54.06
2022-10-29T18:29:10.955Z,54.14
2022-10-29T18:31:43.872Z,54.11
2022-10-29T18:34:17.033Z,54.15
2022-10-29T18:36:49.822Z,54.14
2022-10-29T18:39:22.879Z,54.13
2022-10-29T18:41:55.852Z,54.16
2022-10-29T18:44:28.876Z,54.17
2022-10-29T18:47:01.879Z,54.16
2022-10-29T18:49:40.950Z,54.21
2022-10-29T18:52:13.837Z,54.19
2022-10-29T18:54:47.045Z,54.22
2022-10-29T18:57:19.949Z,54.21
2022-10-29T18:59:53.005Z,54.22
2022-10-29T19:02:26.061Z,54.21
2022-10-29T19:04:58.869Z,54.23
2022-10-29T19:07:31.947Z,54.22
2022-10-29T19:10:04.850Z,54.22
2022-10-29T19:12:40.774Z,54.23
2022-10-29T19:15:13.871Z,54.24
2022-10-29T19:17:46.935Z,54.24
2022-10-29T19:20:20.053Z,54.24
2022-10-29T19:22:52.924Z,54.20
2022-10-29T19:25:25.885Z,54.27
2022-10-29T19:27:59.187Z,54.21
2022-10-29T19:30:31.940Z,54.20
2022-10-29T19:33:07.948Z,54.23
2022-10-29T19:35:38.087Z,54.25
2022-10-29T19:38:10.911Z,54.27
2022-10-29T19:40:43.897Z,54.25
2022-10-29T19:43:16.912Z,54.22
2022-10-29T19:45:49.938Z,54.25
2022-10-29T19:48:23.152Z,54.25
2022-10-29T19:50:56.147Z,54.20
2022-10-29T19:53:29.198Z,54.26
2022-10-29T19:56:02.113Z,54.26
2022-10-29T19:58:35.088Z,54.31
2022-10-29T20:01:08.214Z,54.30
2022-10-29T20:03:40.935Z,54.21
2022-10-29T20:06:13.997Z,54.26
2022-10-29T20:08:47.146Z,54.29
2022-10-29T20:11:26.320Z,54.26
2022-10-29T20:13:59.040Z,54.28
2022-10-29T20:16:32.130Z,54.28
2022-10-29T20:19:04.981Z,54.26
2022-10-29T20:21:38.105Z,54.26
2022-10-29T20:24:10.962Z,54.32
2022-10-29T20:26:44.043Z,54.31
2022-10-29T20:29:16.973Z,54.36
2022-10-29T20:31:50.124Z,54.38
2022-10-29T20:34:23.093Z,54.42
2022-10-29T20:36:56.298Z,54.48
2022-10-29T20:39:32.428Z,54.51
2022-10-29T20:42:02.053Z,54.32
2022-10-29T20:44:49.339Z,53.91
2022-10-29T20:47:22.171Z,53.94
2022-10-29T20:49:54.998Z,54.34
2022-10-29T20:52:30.466Z,54.35
2022-10-29T20:55:03.340Z,54.50
2022-10-29T20:57:36.404Z,54.66
2022-10-29T21:00:09.013Z,54.58
2022-10-29T21:02:42.145Z,54.54
2022-10-29T21:05:15.024Z,54.59
2022-10-29T21:07:48.227Z,54.62
2022-10-29T21:10:21.170Z,54.69
2022-10-29T21:12:54.443Z,54.71
2022-10-29T21:15:27.190Z,54.89
2022-10-29T21:18:00.401Z,54.87
2022-10-29T21:20:33.070Z,54.91
2022-10-29T21:23:06.190Z,54.88
2022-10-29T21:25:39.072Z,54.96
2022-10-29T21:28:12.058Z,55.05
2022-10-29T21:30:45.231Z,55.02
2022-10-29T21:33:18.065Z,55.21
2022-10-29T21:35:51.050Z,54.98
2022-10-29T21:38:24.177Z,55.12
2022-10-29T21:40:57.254Z,55.06
2022-10-29T21:43:30.189Z,55.04
2022-10-29T21:46:03.153Z,55.07
2022-10-29T21:48:36.279Z,55.14
2022-10-29T21:51:09.201Z,55.13
2022-10-29T21:53:42.309Z,55.15
2022-10-29T21:56:15.098Z,55.24
2022-10-29T21:58:48.299Z,55.27
2022-10-29T22:01:21.580Z,55.32
2022-10-29T22:03:54.277Z,55.26
2022-10-29T22:06:27.247Z,55.41
2022-10-29T22:09:00.303Z,55.33
2022-10-29T22:11:33.144Z,55.52
2022-10-29T22:14:06.230Z,55.57
2022-10-29T22:16:39.280Z,55.49
2022-10-29T22:19:12.144Z,55.57
2022-10-29T22:21:45.283Z,55.55
2022-10-29T22:24:18.180Z,55.58
2022-10-29T22:26:51.186Z,55.65
2022-10-29T22:29:24.316Z,55.60
2022-10-29T22:31:57.137Z,55.73
2022-10-29T22:34:30.246Z,55.72
2022-10-29T22:37:03.313Z,55.89
2022-10-29T22:39:36.366Z,55.74
2022-10-29T22:42:09.154Z,55.78
2022-10-29T22:44:42.288Z,55.75
2022-10-29T22:47:15.165Z,55.89
2022-10-29T22:49:48.261Z,55.77
2022-10-29T22:52:21.333Z,56.04
2022-10-29T22:54:54.407Z,55.93
2022-10-29T22:57:27.550Z,56.04
2022-10-29T23:00:00.267Z,56.09
2022-10-29T23:02:33.384Z,56.06
2022-10-29T23:05:06.387Z,56.07
2022-10-29T23:07:39.612Z,56.26
2022-10-29T23:10:12.612Z,56.34
2022-10-29T23:12:45.611Z,56.35
2022-10-29T23:15:18.483Z,56.30
2022-10-29T23:17:51.494Z,56.31
2022-10-29T23:20:24.588Z,56.33
2022-10-29T23:22:57.826Z,56.46
2022-10-29T23:25:30.661Z,56.43
2022-10-29T23:28:03.631Z,56.47
2022-10-29T23:30:36.388Z,56.44
2022-10-29T23:33:09.619Z,56.43
2022-10-29T23:35:42.574Z,56.66
2022-10-29T23:38:15.526Z,56.68
2022-10-29T23:40:48.569Z,56.74
2022-10-29T23:43:21.547Z,56.70
2022-10-29T23:45:54.538Z,56.67
2022-10-29T23:48:27.647Z,56.64
2022-10-29T23:51:00.561Z,56.67
2022-10-29T23:53:33.657Z,56.57
2022-10-29T23:56:06.584Z,56.77
2022-10-29T23:58:39.666Z,56.71
